Time;durP1;ratioP1;P1;durP2;ratioP2;P2;SDS_P1;SDS_P2;PMS_P1;PMS_P2;Temp;Humidity;BMP_temperature;BMP_pressure;BME280_temperature;BME280_humidity;BME280_pressure;Samples;Min_cycle;Max_cycle;Signal;HPM_P1;HPM_P2
2021/04/30 00:00:53;;;;;;;12.27;9.63;;;7.40;99.90;;;;;;2090358;28;20497;-67
2021/04/30 00:01:53;;;;;;;13.25;9.63;;;7.40;99.90;;;;;;2109334;22;20597;-64
2021/04/30 00:02:54;;;;;;;15.03;10.17;;;7.30;99.90;;;;;;2098855;28;20178;-64
2021/04/30 00:03:54;;;;;;;12.73;9.67;;;7.40;99.90;;;;;;2098782;28;20607;-64
2021/04/30 00:04:55;;;;;;;14.03;10.10;;;7.40;99.90;;;;;;2098975;28;20183;-63
2021/04/30 00:05:56;;;;;;;14.70;9.67;;;7.30;99.90;;;;;;2098698;28;20175;-65
2021/04/30 00:06:57;;;;;;;13.40;9.97;;;7.30;99.90;;;;;;2097392;28;20179;-64
2021/04/30 00:07:58;;;;;;;13.70;9.83;;;7.30;99.90;;;;;;2106270;28;20593;-65
2021/04/30 00:08:59;;;;;;;13.75;9.85;;;7.30;99.90;;;;;;2106675;28;20598;-64
2021/04/30 00:10:00;;;;;;;16.17;10.73;;;7.30;99.90;;;;;;2098991;28;20272;-65
2021/04/30 00:11:01;;;;;;;12.87;9.53;;;7.30;99.90;;;;;;2099013;28;20202;-66
2021/04/30 00:12:03;;;;;;;11.32;9.27;;;7.30;99.90;;;;;;2090182;28;20673;-65
2021/04/30 00:13:04;;;;;;;14.10;8.75;;;7.30;99.90;;;;;;2090550;28;20183;-65
2021/04/30 00:14:05;;;;;;;13.27;9.03;;;7.30;99.90;;;;;;2090442;28;20179;-66
2021/04/30 00:15:06;;;;;;;12.40;9.93;;;7.30;99.90;;;;;;2090502;28;20192;-65
2021/04/30 00:16:08;;;;;;;11.35;9.40;;;7.40;99.90;;;;;;2090393;28;20184;-65
2021/04/30 00:17:09;;;;;;;13.80;10.57;;;7.30;99.90;;;;;;2090538;28;20183;-66
2021/04/30 00:18:09;;;;;;;13.00;10.57;;;7.30;99.90;;;;;;2090400;28;20239;-65
2021/04/30 00:19:10;;;;;;;12.53;10.03;;;7.20;99.90;;;;;;2090475;28;20180;-65
2021/04/30 00:20:14;;;;;;;12.27;9.10;;;7.20;99.90;;;;;;2090337;28;20682;-65
2021/04/30 00:21:15;;;;;;;13.98;8.55;;;7.20;99.90;;;;;;2090224;28;20180;-66
2021/04/30 00:22:16;;;;;;;10.40;7.57;;;7.20;99.90;;;;;;2090330;28;20668;-65
2021/04/30 00:23:16;;;;;;;10.77;8.30;;;7.20;99.90;;;;;;2090514;28;20173;-65
2021/04/30 00:24:17;;;;;;;11.57;8.97;;;7.20;99.90;;;;;;2089537;28;20195;-65
2021/04/30 00:25:18;;;;;;;13.30;10.20;;;7.10;99.90;;;;;;2089809;28;20274;-65
2021/04/30 00:26:19;;;;;;;11.90;9.70;;;7.10;99.90;;;;;;2090199;28;20180;-66
2021/04/30 00:27:19;;;;;;;12.80;10.03;;;7.10;99.90;;;;;;2090452;28;20169;-65
2021/04/30 00:28:21;;;;;;;12.80;10.10;;;7.10;99.90;;;;;;2090216;28;20176;-65
2021/04/30 00:29:22;;;;;;;13.05;10.68;;;7.10;99.90;;;;;;2090522;28;20169;-66
2021/04/30 00:30:23;;;;;;;14.37;10.77;;;7.10;99.90;;;;;;2090290;28;20697;-66
2021/04/30 00:31:24;;;;;;;14.95;10.35;;;7.10;99.90;;;;;;2090142;28;20203;-66
2021/04/30 00:32:25;;;;;;;13.93;9.10;;;7.10;99.90;;;;;;2090280;28;20204;-66
2021/04/30 00:33:27;;;;;;;12.23;10.40;;;7.10;99.90;;;;;;2090367;28;20655;-66
2021/04/30 00:34:27;;;;;;;12.63;9.77;;;7.10;99.90;;;;;;2090584;28;20180;-66
2021/04/30 00:35:28;;;;;;;13.00;10.17;;;7.10;99.90;;;;;;2090396;28;20264;-66
2021/04/30 00:36:29;;;;;;;14.40;11.00;;;7.10;99.90;;;;;;2090298;28;20579;-65
2021/04/30 00:37:30;;;;;;;14.27;10.47;;;7.20;99.90;;;;;;2090270;28;20179;-66
2021/04/30 00:38:30;;;;;;;12.37;10.03;;;7.20;99.90;;;;;;2090116;28;20191;-66
2021/04/30 00:39:31;;;;;;;12.47;10.03;;;7.20;99.90;;;;;;2090293;28;20242;-66
2021/04/30 00:40:32;;;;;;;11.67;10.10;;;7.20;99.90;;;;;;2090221;28;20204;-66
2021/04/30 00:41:33;;;;;;;13.20;10.77;;;7.10;99.90;;;;;;2090021;28;20202;-66
2021/04/30 00:42:35;;;;;;;13.43;9.88;;;7.20;99.90;;;;;;2090314;28;20666;-66
2021/04/30 00:43:35;;;;;;;10.90;9.25;;;7.20;99.90;;;;;;2090320;28;20241;-66
2021/04/30 00:44:36;;;;;;;14.67;10.23;;;7.10;99.90;;;;;;2090196;28;20177;-66
2021/04/30 00:45:37;;;;;;;14.50;10.47;;;7.10;99.90;;;;;;2090230;28;20176;-66
2021/04/30 00:46:38;;;;;;;14.13;10.07;;;7.10;99.90;;;;;;2090205;28;20172;-66
2021/04/30 00:47:39;;;;;;;13.47;10.47;;;7.20;99.90;;;;;;2089577;28;20187;-66
2021/04/30 00:48:40;;;;;;;13.33;9.60;;;7.20;99.90;;;;;;2081431;28;20181;-66
2021/04/30 00:49:42;;;;;;;14.95;10.85;;;7.30;99.90;;;;;;2089261;28;20525;-66
2021/04/30 00:50:42;;;;;;;14.68;11.07;;;7.20;99.90;;;;;;2090288;28;20202;-66
2021/04/30 00:51:43;;;;;;;13.47;10.50;;;7.20;99.90;;;;;;2089795;28;20207;-66
2021/04/30 00:52:44;;;;;;;13.60;10.10;;;7.20;99.90;;;;;;2090158;28;20187;-67
2021/04/30 00:53:44;;;;;;;12.97;10.37;;;7.20;99.90;;;;;;2090225;28;20584;-66
2021/04/30 00:54:45;;;;;;;12.83;10.43;;;7.10;99.90;;;;;;2090018;28;20245;-66
2021/04/30 00:55:46;;;;;;;13.47;9.80;;;7.10;99.90;;;;;;2090155;28;20214;-66
2021/04/30 00:56:47;;;;;;;14.90;10.57;;;7.10;99.90;;;;;;2090158;28;20274;-66
2021/04/30 00:57:59;;;;;;;17.70;12.03;;;7.10;99.90;;;;;;2090004;28;20263;-65
2021/04/30 00:59:01;;;;;;;14.73;10.88;;;7.00;99.90;;;;;;2090248;28;20172;-66
2021/04/30 01:00:04;;;;;;;15.13;11.25;;;7.00;99.90;;;;;;2090089;28;20183;-68
2021/04/30 01:01:05;;;;;;;14.43;11.23;;;7.00;99.90;;;;;;2089915;28;20207;-66
2021/04/30 01:02:06;;;;;;;14.27;11.27;;;7.00;99.90;;;;;;2089672;28;20677;-66
2021/04/30 01:03:09;;;;;;;15.13;11.43;;;7.00;99.90;;;;;;2090063;28;20185;-66
2021/04/30 01:04:11;;;;;;;17.45;13.55;;;7.00;99.90;;;;;;2090027;28;20195;-66
2021/04/30 01:05:12;;;;;;;17.00;12.63;;;7.00;99.90;;;;;;2090052;28;20294;-66
2021/04/30 01:06:13;;;;;;;16.27;12.33;;;6.90;99.90;;;;;;2089973;28;20558;-66
2021/04/30 01:07:14;;;;;;;17.17;11.73;;;7.00;99.90;;;;;;2090230;28;20181;-66
2021/04/30 01:08:15;;;;;;;17.63;13.43;;;7.00;99.90;;;;;;2089971;28;20190;-65
2021/04/30 01:09:15;;;;;;;20.73;14.27;;;7.00;99.90;;;;;;2090134;28;20263;-66
2021/04/30 01:10:17;;;;;;;18.47;13.23;;;6.90;99.90;;;;;;2089998;28;20180;-66
2021/04/30 01:11:18;;;;;;;17.95;13.63;;;6.90;99.90;;;;;;2097248;28;20190;-65
2021/04/30 01:12:19;;;;;;;18.83;13.50;;;6.90;99.90;;;;;;2097800;28;20190;-66
2021/04/30 01:13:20;;;;;;;17.83;13.43;;;6.80;99.90;;;;;;2089377;28;20176;-65
2021/04/30 01:14:20;;;;;;;18.37;12.80;;;6.70;99.90;;;;;;2089284;28;20414;-66
2021/04/30 01:15:22;;;;;;;17.40;13.40;;;6.70;99.90;;;;;;2089404;28;20211;-66
2021/04/30 01:16:22;;;;;;;17.00;13.80;;;6.70;99.90;;;;;;2089327;28;20175;-66
2021/04/30 01:17:23;;;;;;;22.50;16.53;;;6.70;99.90;;;;;;2089845;28;20549;-66
2021/04/30 01:18:24;;;;;;;18.07;13.67;;;6.70;99.90;;;;;;2089749;28;20176;-66
2021/04/30 01:19:25;;;;;;;18.93;13.50;;;6.80;99.90;;;;;;2089899;28;20168;-66
2021/04/30 01:20:26;;;;;;;22.52;14.82;;;6.80;99.90;;;;;;2089825;28;20172;-66
2021/04/30 01:21:27;;;;;;;22.60;14.70;;;6.70;99.90;;;;;;2089717;28;20671;-66
2021/04/30 01:22:42;;;;;;;20.33;14.23;;;6.70;99.90;;;;;;2089717;28;20183;-66
2021/04/30 01:23:53;;;;;;;20.90;14.70;;;6.70;99.90;;;;;;2092080;28;20169;-66
2021/04/30 01:24:53;;;;;;;16.63;13.38;;;6.70;99.90;;;;;;2089980;28;20565;-66
2021/04/30 01:25:54;;;;;;;17.03;12.80;;;6.70;99.90;;;;;;2089281;28;20187;-66
2021/04/30 01:26:55;;;;;;;17.53;12.53;;;6.70;99.90;;;;;;2089185;28;20650;-64
2021/04/30 01:27:56;;;;;;;21.37;14.80;;;6.80;99.90;;;;;;2089251;28;20199;-64
2021/04/30 01:28:56;;;;;;;19.67;15.03;;;6.70;99.90;;;;;;2089965;28;20217;-64
2021/04/30 01:29:57;;;;;;;22.97;14.83;;;6.70;99.90;;;;;;2089466;28;20214;-64
2021/04/30 01:30:58;;;;;;;21.60;15.57;;;6.70;99.90;;;;;;2089377;28;20187;-64
2021/04/30 01:31:59;;;;;;;26.60;17.47;;;6.70;99.90;;;;;;2089604;28;20839;-64
2021/04/30 01:33:00;;;;;;;22.37;15.77;;;6.70;99.90;;;;;;2089709;28;20189;-64
2021/04/30 01:34:01;;;;;;;23.55;16.83;;;6.70;99.90;;;;;;2090015;28;20357;-65
2021/04/30 01:35:05;;;;;;;20.17;13.93;;;6.60;99.90;;;;;;2089870;28;20191;-65
2021/04/30 01:36:06;;;;;;;20.50;14.50;;;6.70;99.90;;;;;;2089968;28;20262;-65
2021/04/30 01:37:08;;;;;;;20.15;14.25;;;6.60;99.90;;;;;;2089837;28;20243;-65
2021/04/30 01:38:09;;;;;;;19.33;13.23;;;6.60;99.90;;;;;;2090081;28;20219;-65
2021/04/30 01:39:14;;;;;;;19.47;14.63;;;6.60;99.90;;;;;;2089736;28;20704;-65
2021/04/30 01:40:18;;;;;;;17.88;13.80;;;6.60;99.90;;;;;;2089822;28;20255;-65
2021/04/30 01:41:25;;;;;;;23.13;15.32;;;6.60;99.90;;;;;;2089567;28;20197;-66
2021/04/30 01:42:25;;;;;;;19.45;14.45;;;6.60;99.90;;;;;;2090077;28;20173;-66
2021/04/30 01:43:26;;;;;;;19.83;13.90;;;6.60;99.90;;;;;;2089685;28;20546;-66
2021/04/30 01:44:27;;;;;;;26.10;17.47;;;6.70;99.90;;;;;;2089726;28;20234;-65
2021/04/30 01:45:39;;;;;;;28.60;18.57;;;6.70;99.90;;;;;;2089800;28;20208;-65
2021/04/30 01:46:40;;;;;;;25.38;17.88;;;6.60;99.90;;;;;;2089913;28;20603;-65
2021/04/30 01:47:41;;;;;;;24.15;16.42;;;6.50;99.90;;;;;;2089942;28;20198;-66
2021/04/30 01:48:42;;;;;;;22.23;15.50;;;6.50;99.90;;;;;;2089904;28;20663;-65
2021/04/30 01:49:44;;;;;;;19.47;14.90;;;6.40;99.90;;;;;;2089649;28;20253;-65
2021/04/30 01:50:46;;;;;;;18.20;13.63;;;6.40;99.90;;;;;;2089801;28;20701;-65
2021/04/30 01:51:46;;;;;;;18.17;13.50;;;6.40;99.90;;;;;;2089584;28;20705;-65
2021/04/30 01:52:47;;;;;;;19.90;14.07;;;6.50;99.90;;;;;;2089964;28;20230;-65
2021/04/30 01:53:48;;;;;;;26.97;17.07;;;6.60;99.90;;;;;;2089731;28;20650;-65
2021/04/30 01:54:49;;;;;;;24.13;16.47;;;6.60;99.90;;;;;;2089782;28;20655;-65
2021/04/30 01:55:52;;;;;;;21.67;15.82;;;6.60;99.90;;;;;;2089689;28;20605;-66
2021/04/30 01:56:53;;;;;;;21.65;15.10;;;6.60;99.90;;;;;;2089962;28;20254;-65
2021/04/30 01:57:54;;;;;;;23.93;15.53;;;6.60;99.90;;;;;;2089652;28;20248;-65
2021/04/30 01:58:55;;;;;;;28.95;16.45;;;6.60;99.90;;;;;;2089680;28;20187;-66
2021/04/30 01:59:56;;;;;;;22.27;15.90;;;6.60;99.90;;;;;;2089663;28;20195;-65
2021/04/30 02:00:57;;;;;;;20.10;15.10;;;6.60;99.90;;;;;;2089490;28;20618;-65
2021/04/30 02:01:58;;;;;;;19.65;15.32;;;6.50;99.90;;;;;;2089250;28;20207;-66
2021/04/30 02:03:00;;;;;;;20.95;14.48;;;6.50;99.90;;;;;;2089715;28;20186;-65
2021/04/30 02:04:00;;;;;;;20.45;15.30;;;6.50;99.90;;;;;;2089652;28;20564;-65
2021/04/30 02:05:01;;;;;;;22.53;15.27;;;6.60;99.90;;;;;;2089661;28;20209;-66
2021/04/30 02:06:03;;;;;;;19.13;15.33;;;6.60;99.90;;;;;;2089654;28;20275;-65
2021/04/30 02:07:04;;;;;;;23.27;17.40;;;6.60;99.90;;;;;;2089896;28;20187;-65
2021/04/30 02:08:09;;;;;;;21.73;15.20;;;6.60;99.90;;;;;;2089701;28;20648;-66
2021/04/30 02:09:09;;;;;;;23.52;16.35;;;6.60;99.90;;;;;;2089595;28;20194;-65
2021/04/30 02:10:18;;;;;;;25.30;17.17;;;6.50;99.90;;;;;;2089737;28;20187;-65
2021/04/30 02:11:18;;;;;;;28.42;17.27;;;6.50;99.90;;;;;;2089150;28;20312;-66
2021/04/30 02:12:23;;;;;;;26.80;17.43;;;6.40;99.90;;;;;;2089753;28;20196;-65
2021/04/30 02:13:24;;;;;;;23.98;16.83;;;6.50;99.90;;;;;;2090016;28;20224;-66
2021/04/30 02:14:25;;;;;;;25.03;18.30;;;6.50;99.90;;;;;;2089614;28;20622;-66
2021/04/30 02:15:29;;;;;;;33.27;21.07;;;6.50;99.90;;;;;;2089528;28;20198;-66
2021/04/30 02:16:32;;;;;;;32.03;19.67;;;6.50;99.90;;;;;;2089525;28;20279;-66
2021/04/30 02:17:33;;;;;;;29.08;19.33;;;6.50;99.90;;;;;;2089469;28;20675;-66
2021/04/30 02:18:33;;;;;;;29.93;19.70;;;6.50;99.90;;;;;;2089467;28;20180;-66
2021/04/30 02:19:34;;;;;;;42.47;22.53;;;6.60;99.90;;;;;;2089457;28;20647;-66
2021/04/30 02:20:35;;;;;;;28.17;18.90;;;6.50;99.90;;;;;;2089588;28;20216;-66
2021/04/30 02:21:36;;;;;;;28.60;20.37;;;6.50;99.90;;;;;;2087469;28;20223;-66
2021/04/30 02:22:37;;;;;;;31.20;20.40;;;6.30;99.90;;;;;;2089428;28;20298;-66
2021/04/30 02:23:38;;;;;;;32.08;19.63;;;6.30;99.90;;;;;;2089310;28;20219;-66
2021/04/30 02:24:40;;;;;;;31.30;20.10;;;6.30;99.90;;;;;;2089547;28;20659;-66
2021/04/30 02:25:41;;;;;;;31.08;19.67;;;6.30;99.90;;;;;;2089424;28;20528;-66
2021/04/30 02:26:41;;;;;;;29.80;18.95;;;6.20;99.90;;;;;;2089512;28;20187;-65
2021/04/30 02:27:43;;;;;;;31.00;19.30;;;6.20;99.90;;;;;;2089343;28;20176;-66
2021/04/30 02:28:45;;;;;;;28.75;19.10;;;6.20;99.90;;;;;;2089480;28;20176;-66
2021/04/30 02:29:46;;;;;;;24.33;17.42;;;6.30;99.90;;;;;;2088343;28;20196;-66
2021/04/30 02:30:47;;;;;;;27.73;18.93;;;6.20;99.90;;;;;;2088910;28;20294;-66
2021/04/30 02:31:47;;;;;;;26.13;18.43;;;6.20;99.90;;;;;;2088472;28;20214;-66
2021/04/30 02:32:50;;;;;;;29.37;18.50;;;6.20;99.90;;;;;;2088809;28;20187;-66
2021/04/30 02:33:51;;;;;;;24.40;17.15;;;6.20;99.90;;;;;;2089339;28;20234;-66
2021/04/30 02:34:52;;;;;;;29.00;18.13;;;6.20;99.90;;;;;;2089610;28;20184;-66
2021/04/30 02:35:53;;;;;;;26.52;18.77;;;6.20;99.90;;;;;;2089465;28;20185;-66
2021/04/30 02:36:54;;;;;;;31.23;19.65;;;6.20;99.90;;;;;;2088683;28;20725;-66
2021/04/30 02:37:55;;;;;;;34.90;20.77;;;6.10;99.90;;;;;;2088718;28;20180;-66
2021/04/30 02:38:56;;;;;;;30.73;19.60;;;6.10;99.90;;;;;;2089338;28;20195;-66
2021/04/30 02:39:57;;;;;;;39.73;23.37;;;6.20;99.90;;;;;;2089496;28;20294;-66
2021/04/30 02:40:58;;;;;;;30.87;21.00;;;6.10;99.90;;;;;;2089516;28;20336;-65
2021/04/30 02:41:59;;;;;;;29.63;20.87;;;6.10;99.90;;;;;;2089077;28;20763;-66
2021/04/30 02:43:05;;;;;;;23.33;17.83;;;6.10;99.90;;;;;;2089361;28;20313;-66
2021/04/30 02:44:06;;;;;;;28.35;19.38;;;6.20;99.90;;;;;;2089220;28;20170;-66
2021/04/30 02:45:09;;;;;;;31.20;20.60;;;6.10;99.90;;;;;;2089443;28;20183;-66
2021/04/30 02:46:10;;;;;;;27.42;19.45;;;6.10;99.90;;;;;;2088690;28;20622;-66
2021/04/30 02:47:12;;;;;;;30.47;19.57;;;6.20;99.90;;;;;;2088890;28;20273;-66
2021/04/30 02:48:15;;;;;;;32.60;20.30;;;6.20;99.90;;;;;;2089339;28;20230;-66
2021/04/30 02:49:17;;;;;;;29.67;19.60;;;6.20;99.90;;;;;;2089210;28;20188;-66
2021/04/30 02:50:25;;;;;;;26.10;18.52;;;6.30;99.90;;;;;;2089496;28;20233;-66
2021/04/30 02:51:26;;;;;;;29.35;19.50;;;6.30;99.90;;;;;;2089177;28;20210;-65
2021/04/30 02:52:27;;;;;;;25.07;18.97;;;6.30;99.90;;;;;;2089495;28;20541;-65
2021/04/30 02:53:28;;;;;;;28.65;19.13;;;6.20;99.90;;;;;;2089397;28;20175;-66
2021/04/30 02:54:29;;;;;;;24.37;17.93;;;6.30;99.90;;;;;;2089511;28;20183;-66
2021/04/30 02:55:30;;;;;;;27.20;19.73;;;6.30;99.90;;;;;;2089248;28;20186;-66
2021/04/30 02:56:33;;;;;;;28.13;20.03;;;6.30;99.90;;;;;;2089380;28;20180;-66
2021/04/30 02:57:34;;;;;;;25.58;19.45;;;6.30;99.90;;;;;;2089480;28;20310;-66
2021/04/30 02:58:34;;;;;;;28.20;18.40;;;6.30;99.90;;;;;;2089343;28;20179;-66
2021/04/30 02:59:35;;;;;;;29.67;20.40;;;6.30;99.90;;;;;;2089389;28;20176;-66
2021/04/30 03:00:36;;;;;;;25.73;18.57;;;6.30;99.90;;;;;;2089263;28;20208;-66
2021/04/30 03:01:37;;;;;;;29.70;20.43;;;6.30;99.90;;;;;;2088840;28;20453;-65
2021/04/30 03:02:38;;;;;;;26.07;18.93;;;6.30;99.90;;;;;;2089389;28;20207;-66
2021/04/30 03:03:38;;;;;;;28.93;18.70;;;6.30;99.90;;;;;;2089417;28;20175;-66
2021/04/30 03:04:40;;;;;;;25.97;18.77;;;6.30;99.90;;;;;;2089333;28;20193;-66
2021/04/30 03:05:41;;;;;;;29.10;19.83;;;6.30;99.90;;;;;;2088966;28;20191;-66
2021/04/30 03:06:42;;;;;;;23.67;18.55;;;6.30;99.90;;;;;;2089148;28;20184;-67
2021/04/30 03:07:43;;;;;;;30.70;21.63;;;6.30;99.90;;;;;;2088476;28;20184;-66
2021/04/30 03:08:45;;;;;;;25.02;18.45;;;6.30;99.90;;;;;;2088602;28;20190;-66
2021/04/30 03:09:46;;;;;;;33.30;20.02;;;6.20;99.90;;;;;;2089187;28;20187;-66
2021/04/30 03:10:47;;;;;;;34.20;21.50;;;6.30;99.90;;;;;;2089157;28;20210;-66
2021/04/30 03:11:48;;;;;;;31.95;20.35;;;6.30;99.90;;;;;;2088947;28;20207;-66
2021/04/30 03:12:49;;;;;;;29.73;21.07;;;6.30;99.90;;;;;;2089374;28;20247;-66
2021/04/30 03:13:50;;;;;;;30.70;19.87;;;6.30;99.90;;;;;;2089274;28;20534;-66
2021/04/30 03:14:51;;;;;;;31.45;21.10;;;6.30;99.90;;;;;;2089274;28;20414;-66
2021/04/30 03:15:52;;;;;;;22.50;16.88;;;6.30;99.90;;;;;;2089165;28;20813;-66
2021/04/30 03:16:53;;;;;;;21.27;17.40;;;6.20;99.90;;;;;;2089260;28;20218;-66
2021/04/30 03:17:54;;;;;;;29.67;20.13;;;6.10;99.90;;;;;;2089142;28;20218;-66
2021/04/30 03:18:55;;;;;;;26.85;20.23;;;6.00;99.90;;;;;;2089310;28;20213;-66
2021/04/30 03:19:56;;;;;;;26.67;19.40;;;5.90;99.90;;;;;;2089183;28;20184;-66
2021/04/30 03:20:56;;;;;;;26.57;18.93;;;6.00;99.90;;;;;;2089307;28;20706;-66
2021/04/30 03:21:57;;;;;;;29.93;20.53;;;6.10;99.90;;;;;;2088783;28;20856;-65
2021/04/30 03:22:58;;;;;;;30.90;21.35;;;6.10;99.90;;;;;;2089259;28;20263;-66
2021/04/30 03:23:59;;;;;;;30.23;20.40;;;6.20;99.90;;;;;;2089112;28;20527;-66
2021/04/30 03:25:00;;;;;;;31.03;21.53;;;6.20;99.90;;;;;;2089233;28;20546;-66
2021/04/30 03:26:00;;;;;;;30.97;20.73;;;6.20;99.90;;;;;;2089129;28;20198;-66
2021/04/30 03:27:01;;;;;;;34.27;24.00;;;6.10;99.90;;;;;;2091601;28;20596;-65
2021/04/30 03:28:02;;;;;;;30.10;20.47;;;6.20;99.90;;;;;;2089262;28;20178;-66
2021/04/30 03:29:04;;;;;;;31.97;22.10;;;6.20;99.90;;;;;;2089184;28;20263;-66
2021/04/30 03:30:07;;;;;;;30.27;20.83;;;6.20;99.90;;;;;;2088481;28;20214;-67
2021/04/30 03:31:08;;;;;;;27.08;20.20;;;6.20;99.90;;;;;;2088478;28;20249;-65
2021/04/30 03:32:08;;;;;;;34.73;22.90;;;6.20;99.90;;;;;;2089173;28;20175;-65
2021/04/30 03:33:10;;;;;;;32.43;22.00;;;6.30;99.90;;;;;;2089205;28;20234;-65
2021/04/30 03:34:11;;;;;;;35.55;21.63;;;6.20;99.90;;;;;;2089159;28;20178;-66
2021/04/30 03:35:18;;;;;;;31.47;21.73;;;6.20;99.90;;;;;;2089331;28;20191;-65
2021/04/30 03:36:19;;;;;;;27.27;19.55;;;6.20;99.90;;;;;;2089195;28;20171;-66
2021/04/30 03:37:21;;;;;;;28.10;19.75;;;6.20;99.90;;;;;;2089413;28;20187;-66
2021/04/30 03:38:22;;;;;;;28.10;19.83;;;6.20;99.90;;;;;;2088957;28;20658;-66
2021/04/30 03:39:23;;;;;;;31.00;21.33;;;6.30;99.90;;;;;;2089043;28;20192;-66
2021/04/30 03:40:23;;;;;;;30.40;20.10;;;6.20;99.90;;;;;;2088931;28;20183;-66
2021/04/30 03:41:24;;;;;;;29.40;20.17;;;6.20;99.90;;;;;;2089689;28;20198;-66
2021/04/30 03:42:25;;;;;;;32.90;22.13;;;6.10;99.90;;;;;;2090837;28;20180;-66
2021/04/30 03:43:26;;;;;;;27.60;20.23;;;6.20;99.90;;;;;;2090785;28;20188;-66
2021/04/30 03:44:27;;;;;;;27.50;19.85;;;6.10;99.90;;;;;;2091031;28;20183;-66
2021/04/30 03:45:27;;;;;;;27.03;19.60;;;6.10;99.90;;;;;;2090776;28;20290;-66
2021/04/30 03:46:28;;;;;;;30.83;21.60;;;6.20;99.90;;;;;;2090017;28;20589;-66
2021/04/30 03:47:29;;;;;;;32.93;20.63;;;6.10;99.90;;;;;;2090066;28;20549;-66
2021/04/30 03:48:31;;;;;;;25.63;19.10;;;6.20;99.90;;;;;;2090750;28;20199;-66
2021/04/30 03:49:32;;;;;;;27.73;20.50;;;6.20;99.90;;;;;;2090468;28;20187;-66
2021/04/30 03:50:32;;;;;;;27.53;20.63;;;6.10;99.90;;;;;;2090862;28;20220;-66
2021/04/30 03:51:33;;;;;;;27.43;20.10;;;6.20;99.90;;;;;;2090470;28;20194;-65
2021/04/30 03:52:34;;;;;;;28.47;20.13;;;6.10;99.90;;;;;;2090733;28;20193;-66
2021/04/30 03:53:35;;;;;;;31.90;21.15;;;6.10;99.90;;;;;;2090612;28;20199;-66
2021/04/30 03:54:36;;;;;;;29.23;21.27;;;6.10;99.90;;;;;;2090613;28;20581;-65
2021/04/30 03:55:37;;;;;;;27.03;20.73;;;6.10;99.90;;;;;;2090746;28;20186;-66
2021/04/30 03:56:37;;;;;;;23.02;18.63;;;6.10;99.90;;;;;;2090672;28;20178;-66
2021/04/30 03:57:38;;;;;;;27.77;20.87;;;6.10;99.90;;;;;;2090495;28;20214;-67
2021/04/30 03:58:39;;;;;;;30.63;21.97;;;6.10;99.90;;;;;;2090802;28;20650;-66
2021/04/30 03:59:39;;;;;;;25.87;20.60;;;6.00;99.90;;;;;;2090410;28;20240;-66
2021/04/30 04:00:40;;;;;;;28.17;21.67;;;6.00;99.90;;;;;;2090593;28;20394;-65
2021/04/30 04:01:41;;;;;;;26.83;20.50;;;6.00;99.90;;;;;;2089974;28;20715;-66
2021/04/30 04:02:42;;;;;;;26.70;19.93;;;6.00;99.90;;;;;;2090526;28;20230;-65
2021/04/30 04:03:43;;;;;;;32.50;22.35;;;5.90;99.90;;;;;;2090400;28;20187;-66
2021/04/30 04:04:43;;;;;;;30.17;20.93;;;5.90;99.90;;;;;;2090427;28;20614;-65
2021/04/30 04:05:44;;;;;;;27.27;19.77;;;5.90;99.90;;;;;;2090166;28;20677;-66
2021/04/30 04:06:45;;;;;;;30.30;21.80;;;5.90;99.90;;;;;;2090360;28;20317;-66
2021/04/30 04:07:46;;;;;;;32.77;22.17;;;5.90;99.90;;;;;;2090283;28;20190;-65
2021/04/30 04:08:47;;;;;;;33.60;22.47;;;5.80;99.90;;;;;;2090383;28;20177;-66
2021/04/30 04:09:47;;;;;;;29.63;22.13;;;5.80;99.90;;;;;;2090345;28;20179;-66
2021/04/30 04:10:48;;;;;;;33.40;23.50;;;5.80;99.90;;;;;;2090248;28;20178;-66
2021/04/30 04:11:49;;;;;;;39.77;25.40;;;5.80;99.90;;;;;;2089985;28;20199;-66
2021/04/30 04:12:49;;;;;;;28.63;21.10;;;5.70;99.90;;;;;;2090279;28;20774;-66
2021/04/30 04:13:50;;;;;;;29.43;22.20;;;5.70;99.90;;;;;;2090116;28;20278;-65
2021/04/30 04:14:51;;;;;;;29.23;21.63;;;5.70;99.90;;;;;;2090299;28;20258;-66
2021/04/30 04:15:54;;;;;;;34.83;24.33;;;5.70;99.90;;;;;;2090093;28;20535;-66
2021/04/30 04:16:54;;;;;;;30.27;22.30;;;5.70;99.90;;;;;;2090300;28;20678;-65
2021/04/30 04:17:55;;;;;;;33.70;23.97;;;5.70;99.90;;;;;;2090142;28;20183;-66
2021/04/30 04:18:56;;;;;;;29.00;21.77;;;5.80;99.90;;;;;;2090250;28;20185;-66
2021/04/30 04:19:56;;;;;;;25.43;19.63;;;5.80;99.90;;;;;;2090210;28;20173;-66
2021/04/30 04:20:57;;;;;;;26.53;20.53;;;5.80;99.90;;;;;;2090195;28;20195;-65
2021/04/30 04:21:58;;;;;;;24.77;19.20;;;5.80;99.90;;;;;;2089856;28;20194;-66
2021/04/30 04:22:58;;;;;;;25.20;19.30;;;5.70;99.90;;;;;;2090225;28;20202;-66
2021/04/30 04:23:59;;;;;;;24.13;19.03;;;5.70;99.90;;;;;;2090270;28;20181;-65
2021/04/30 04:25:00;;;;;;;28.97;21.97;;;5.70;99.90;;;;;;2090240;28;20194;-66
2021/04/30 04:26:01;;;;;;;31.47;20.53;;;5.60;99.90;;;;;;2090316;28;20176;-66
2021/04/30 04:27:01;;;;;;;27.03;19.73;;;5.50;99.90;;;;;;2090043;28;20210;-66
2021/04/30 04:28:03;;;;;;;27.00;20.60;;;5.50;99.90;;;;;;2090240;28;20194;-65
2021/04/30 04:29:04;;;;;;;24.65;19.25;;;5.50;99.90;;;;;;2090135;28;20261;-66
2021/04/30 04:30:08;;;;;;;24.73;19.70;;;5.50;99.90;;;;;;2090171;28;20182;-66
2021/04/30 04:31:08;;;;;;;27.70;20.50;;;5.40;99.90;;;;;;2090055;28;20206;-66
2021/04/30 04:32:09;;;;;;;35.67;23.93;;;5.40;99.90;;;;;;2090297;28;20183;-66
2021/04/30 04:33:10;;;;;;;30.70;21.75;;;5.30;99.90;;;;;;2090279;28;20576;-66
2021/04/30 04:34:11;;;;;;;30.17;21.83;;;5.40;99.90;;;;;;2090510;28;20190;-66
2021/04/30 04:35:11;;;;;;;32.67;23.57;;;5.40;99.90;;;;;;2090282;28;20189;-65
2021/04/30 04:36:12;;;;;;;37.77;25.47;;;5.40;99.90;;;;;;2090398;28;20213;-66
2021/04/30 04:37:13;;;;;;;29.70;21.47;;;5.40;99.90;;;;;;2090393;28;20214;-66
2021/04/30 04:38:14;;;;;;;31.47;23.00;;;5.50;99.90;;;;;;2090343;28;20218;-66
2021/04/30 04:39:14;;;;;;;31.67;23.27;;;5.50;99.90;;;;;;2089863;28;20684;-66
2021/04/30 04:40:16;;;;;;;32.00;22.27;;;5.60;99.90;;;;;;2089890;28;20183;-66
2021/04/30 04:41:17;;;;;;;28.13;21.17;;;5.60;99.90;;;;;;2090021;28;20214;-66
2021/04/30 04:42:18;;;;;;;28.27;20.57;;;5.60;99.90;;;;;;2090596;28;20183;-66
2021/04/30 04:43:18;;;;;;;30.23;21.63;;;5.60;99.90;;;;;;2090426;28;20265;-65
2021/04/30 04:44:19;;;;;;;29.63;21.63;;;5.70;99.90;;;;;;2090629;28;20176;-65
2021/04/30 04:45:20;;;;;;;32.57;23.13;;;5.70;99.90;;;;;;2090328;28;20175;-66
2021/04/30 04:46:21;;;;;;;29.67;22.30;;;5.80;99.90;;;;;;2090643;28;20668;-66
2021/04/30 04:47:22;;;;;;;30.57;22.30;;;5.80;99.90;;;;;;2090281;28;20190;-66
2021/04/30 04:48:23;;;;;;;30.80;22.90;;;5.80;99.90;;;;;;2090824;28;20194;-66
2021/04/30 04:49:24;;;;;;;26.47;20.77;;;5.80;99.90;;;;;;2090734;28;20228;-66
2021/04/30 04:50:24;;;;;;;23.33;18.55;;;5.80;99.90;;;;;;2090482;28;20174;-66
2021/04/30 04:51:25;;;;;;;26.57;19.80;;;5.70;99.90;;;;;;2090048;28;20752;-66
2021/04/30 04:52:25;;;;;;;30.43;22.40;;;5.60;99.90;;;;;;2090621;28;20214;-66
2021/04/30 04:53:26;;;;;;;25.53;19.43;;;5.60;99.90;;;;;;2089964;28;20232;-66
2021/04/30 04:54:28;;;;;;;25.13;20.47;;;5.60;99.90;;;;;;2090332;28;20618;-67
2021/04/30 04:55:29;;;;;;;25.90;20.35;;;5.60;99.90;;;;;;2090362;28;20206;-67
2021/04/30 04:56:29;;;;;;;24.98;19.17;;;5.70;99.90;;;;;;2090277;28;20243;-66
2021/04/30 04:57:30;;;;;;;25.17;19.20;;;5.70;99.90;;;;;;2090181;28;20202;-66
2021/04/30 04:58:31;;;;;;;23.67;19.17;;;5.70;99.90;;;;;;2090318;28;20179;-66
2021/04/30 04:59:31;;;;;;;27.60;20.53;;;5.70;99.90;;;;;;2089985;28;20190;-65
2021/04/30 05:00:33;;;;;;;24.27;19.60;;;5.70;99.90;;;;;;2090223;28;20188;-66
2021/04/30 05:01:34;;;;;;;24.13;19.45;;;5.60;99.90;;;;;;2089803;28;20203;-66
2021/04/30 05:02:34;;;;;;;26.52;19.63;;;5.70;99.90;;;;;;2090393;28;20160;-66
2021/04/30 05:03:35;;;;;;;23.70;19.57;;;5.60;99.90;;;;;;2090581;28;20218;-66
2021/04/30 05:04:36;;;;;;;30.70;21.60;;;5.80;99.90;;;;;;2090404;28;20172;-66
2021/04/30 05:05:36;;;;;;;22.97;18.70;;;5.90;99.90;;;;;;2090703;28;20642;-66
2021/04/30 05:06:37;;;;;;;28.37;22.43;;;5.90;99.90;;;;;;2090337;28;20203;-66
2021/04/30 05:07:38;;;;;;;24.30;19.17;;;5.90;99.90;;;;;;2090629;28;20191;-65
2021/04/30 05:08:39;;;;;;;26.93;20.73;;;5.90;99.90;;;;;;2090492;28;20242;-66
2021/04/30 05:09:40;;;;;;;28.92;22.20;;;5.90;99.90;;;;;;2090446;28;20183;-66
2021/04/30 05:10:41;;;;;;;27.10;20.83;;;5.90;99.90;;;;;;2090354;28;20198;-65
2021/04/30 05:11:42;;;;;;;25.20;20.83;;;6.00;99.90;;;;;;2090451;28;20903;-66
2021/04/30 05:12:42;;;;;;;27.73;21.20;;;6.00;99.90;;;;;;2089755;28;20189;-66
2021/04/30 05:13:43;;;;;;;24.93;20.10;;;6.10;99.90;;;;;;2089737;28;20265;-66
2021/04/30 05:14:44;;;;;;;24.40;18.87;;;6.10;99.90;;;;;;2089785;28;20182;-66
2021/04/30 05:15:44;;;;;;;24.17;19.33;;;6.00;99.90;;;;;;2089695;28;20193;-66